createdAt,value
2023-03-17T05:02:02.644Z,2.91
2023-03-17T05:05:06.079Z,2.91
2023-03-17T05:08:08.655Z,2.19
2023-03-17T05:11:12.816Z,2.42
2023-03-17T05:14:15.671Z,2.35
2023-03-17T05:17:18.134Z,2.39
2023-03-17T05:20:20.465Z,2.35
2023-03-17T05:23:23.270Z,2.37
2023-03-17T05:26:25.934Z,2.52
2023-03-17T05:29:28.593Z,2.51
2023-03-17T05:32:32.050Z,2.81
2023-03-17T05:35:34.606Z,2.78
2023-03-17T05:38:36.925Z,2.62
2023-03-17T05:41:39.280Z,2.89
2023-03-17T05:44:41.389Z,2.98
2023-03-17T05:47:43.963Z,3.07
2023-03-17T05:50:46.818Z,2.79
2023-03-17T05:53:49.287Z,2.90
2023-03-17T05:56:51.512Z,2.96
2023-03-17T05:59:54.356Z,2.98
2023-03-17T06:02:56.549Z,3.17
2023-03-17T06:05:59.382Z,3.35
2023-03-17T06:09:01.892Z,3.37
2023-03-17T06:12:06.730Z,3.52
2023-03-17T06:15:09.851Z,3.59
2023-03-17T06:18:12.599Z,3.65
2023-03-17T06:21:14.738Z,3.84
2023-03-17T06:24:17.148Z,3.76
2023-03-17T06:27:19.981Z,4.12
2023-03-17T06:30:22.558Z,4.22
2023-03-17T06:33:26.086Z,4.56
2023-03-17T06:36:29.024Z,4.61
2023-03-17T06:39:31.200Z,4.57
2023-03-17T06:42:33.571Z,4.75
2023-03-17T06:45:36.047Z,4.88
2023-03-17T06:48:38.503Z,5.12
2023-03-17T06:51:41.229Z,5.37
2023-03-17T06:54:44.608Z,5.54
2023-03-17T06:57:48.328Z,5.69
2023-03-17T07:00:54.028Z,5.74
2023-03-17T07:03:56.452Z,5.87
2023-03-17T07:06:58.874Z,6.14
2023-03-17T07:10:01.386Z,6.70
2023-03-17T07:13:05.944Z,6.76
2023-03-17T07:16:08.473Z,7.07
2023-03-17T07:19:11.127Z,7.22
2023-03-17T07:22:13.442Z,7.37
2023-03-17T07:25:16.008Z,7.49
2023-03-17T07:28:19.209Z,7.45
2023-03-17T07:31:23.251Z,7.66
2023-03-17T07:34:25.522Z,7.48
2023-03-17T07:37:28.027Z,7.79
2023-03-17T07:40:30.706Z,7.82
2023-03-17T07:43:33.499Z,7.88
2023-03-17T07:46:35.639Z,8.04
2023-03-17T07:49:41.586Z,8.10
2023-03-17T07:52:44.410Z,8.29
2023-03-17T07:55:46.978Z,8.09
2023-03-17T07:58:49.141Z,8.05
2023-03-17T08:01:51.720Z,8.03
2023-03-17T08:04:54.161Z,8.08
2023-03-17T08:07:56.368Z,8.04
2023-03-17T08:11:05.686Z,8.30
2023-03-17T08:14:07.843Z,8.24
2023-03-17T08:17:10.457Z,8.66
2023-03-17T08:20:12.910Z,8.80
2023-03-17T08:23:15.475Z,8.93
2023-03-17T08:26:18.581Z,8.86
2023-03-17T08:29:21.229Z,9.15
2023-03-17T08:32:23.431Z,8.94
2023-03-17T08:35:25.982Z,9.06
2023-03-17T08:38:28.368Z,9.01
2023-03-17T08:41:31.535Z,9.16
2023-03-17T08:44:35.162Z,9.24
2023-03-17T08:47:38.321Z,9.56
2023-03-17T08:50:40.663Z,9.52
2023-03-17T08:53:43.182Z,9.36
2023-03-17T08:56:45.296Z,9.78
2023-03-17T08:59:48.064Z,9.76
2023-03-17T09:02:50.382Z,9.71
2023-03-17T09:05:53.466Z,9.74
2023-03-17T09:08:55.830Z,9.50
2023-03-17T09:11:58.244Z,9.59
2023-03-17T09:15:00.540Z,9.70
2023-03-17T09:18:04.103Z,9.69
2023-03-17T09:21:08.737Z,10.18
2023-03-17T09:24:11.198Z,10.24
2023-03-17T09:27:13.428Z,10.01
2023-03-17T09:30:17.602Z,9.96
2023-03-17T09:33:19.942Z,9.69
2023-03-17T09:36:24.205Z,9.75
2023-03-17T09:39:28.751Z,9.84
2023-03-17T09:42:49.549Z,10.14
2023-03-17T09:45:52.238Z,10.46
2023-03-17T11:55:36.025Z,11.35
2023-03-17T11:58:44.829Z,11.28
2023-03-17T12:02:05.001Z,11.49
2023-03-17T12:05:17.447Z,11.60
2023-03-17T12:08:50.736Z,11.61
2023-03-17T12:11:55.873Z,11.60
2023-03-17T12:15:00.369Z,11.45
2023-03-17T12:18:10.867Z,11.62
2023-03-17T12:21:38.698Z,11.37
2023-03-17T12:24:47.684Z,11.34
2023-03-17T12:28:05.344Z,11.46
2023-03-17T12:31:12.803Z,11.56
2023-03-17T12:34:43.422Z,11.64
2023-03-17T12:37:46.610Z,11.42
2023-03-17T12:41:18.355Z,11.47
2023-03-17T12:44:30.365Z,11.34
2023-03-17T12:47:44.494Z,11.41
2023-03-17T12:51:17.991Z,11.56
2023-03-17T12:54:27.066Z,11.79
2023-03-17T12:57:38.727Z,11.84
2023-03-17T13:01:03.723Z,11.84
2023-03-17T13:04:26.483Z,11.96
2023-03-17T13:08:00.148Z,11.97
2023-03-17T13:11:33.505Z,12.14
2023-03-17T13:14:47.299Z,11.80
2023-03-17T13:17:50.109Z,11.69
2023-03-17T13:21:11.280Z,11.91
2023-03-17T13:24:16.804Z,11.97
2023-03-17T13:27:31.271Z,11.77
2023-03-17T13:30:36.431Z,11.64
2023-03-17T13:34:02.626Z,11.77
2023-03-17T13:37:22.152Z,11.97
2023-03-17T13:40:39.409Z,11.80
2023-03-17T13:44:00.183Z,11.98
2023-03-17T13:47:25.159Z,12.00
2023-03-17T13:50:32.666Z,11.91
2023-03-17T13:53:46.974Z,11.76
2023-03-17T13:56:50.963Z,11.80
2023-03-17T14:00:24.666Z,12.04
2023-03-17T14:03:33.944Z,12.04
2023-03-17T14:06:38.132Z,12.07
2023-03-17T14:09:42.278Z,11.89
2023-03-17T14:13:06.137Z,11.88
2023-03-17T14:16:17.089Z,11.98
2023-03-17T14:19:28.490Z,12.11
2023-03-17T14:22:30.961Z,11.85
2023-03-17T14:25:37.627Z,12.04
2023-03-17T14:28:40.516Z,12.05
2023-03-17T14:31:47.783Z,12.03
2023-03-17T14:34:59.625Z,11.84
2023-03-17T14:38:02.659Z,11.80
2023-03-17T14:41:20.683Z,11.79
2023-03-17T14:44:22.813Z,11.71
2023-03-17T14:47:26.007Z,11.61
2023-03-17T14:50:32.543Z,11.66
2023-03-17T14:53:39.399Z,11.83
2023-03-17T14:56:46.399Z,11.84
2023-03-17T15:00:14.822Z,12.03
2023-03-17T15:03:20.543Z,11.93
2023-03-17T15:06:27.467Z,11.91
2023-03-17T15:09:36.175Z,11.84
2023-03-17T15:12:38.894Z,11.86
2023-03-17T15:15:43.061Z,11.96
2023-03-17T15:18:46.292Z,11.81
2023-03-17T15:21:49.224Z,11.84
2023-03-17T15:25:14.370Z,11.92
2023-03-17T15:28:19.106Z,11.88
2023-03-17T15:31:27.012Z,11.70
2023-03-17T15:34:30.444Z,11.76
2023-03-17T15:37:34.472Z,11.71
2023-03-17T15:40:36.601Z,11.67
2023-03-17T15:43:39.053Z,11.49
2023-03-17T15:46:41.723Z,11.43
2023-03-17T15:49:45.932Z,11.55
2023-03-17T15:52:48.171Z,11.57
2023-03-17T15:55:51.185Z,11.55
2023-03-17T15:58:53.371Z,11.46
2023-03-17T16:01:56.059Z,11.49
2023-03-17T16:05:07.403Z,11.47
2023-03-17T16:08:18.047Z,11.45
2023-03-17T16:11:28.020Z,11.37
2023-03-17T16:14:30.405Z,11.34
2023-03-17T16:17:32.960Z,11.20
2023-03-17T16:20:41.562Z,11.33
2023-03-17T16:23:44.144Z,11.28
2023-03-17T16:26:46.339Z,11.21
